Station Historical Data
Daily Summary for February 8, 2018 Units:  Both    English   Metric
« Previous Day
Next Day »
Daily Weekly Monthly Yearly Custom
  High: Low: Average:
Temperature: 20.1 °F /  -6.6 °C 8.9 °F /  -12.8 °C 15 °F /  -9.4 °C
Dew Point: 14.0 °F /  -10 °C 5.2 °F /  -14.9 °C 10.4 °F /  -12 °C
Humidity: 86% 74% 82%
Wind Speed: 15.0mph /  24.1km/h - 5.2mph /  8.4km/h
Wind Gust: 20.0mph /  32.2km/h - -
Wind- - SW
Pressure: 30.48 in /  1032.1 hPa 30.34 in /  1027.3 hPa -
Precipitation: 0.00 in /  0 mm    
Historical Graphs
 
 
Tabular Data for February 8, 2018
Time Temperature Dew Point Pressure Wind Wind Speed Wind Gust Humidity Rainfall Rate (Hourly)
00:04 9.5 °F /  -12.5 °C 5.6 °F /  -14.7 °C 30.35in /  1027.7hPa SSW 3.0mph /  4.8km/h 6.0mph /  9.7km/h 84% 0.00in /  0mm
00:09 9.3 °F /  -12.6 °C 5.4 °F /  -14.8 °C 30.35in /  1027.7hPa SSW 2.0mph /  3.2km/h 5.0mph /  8km/h 84% 0.00in /  0mm
00:14 9.2 °F /  -12.7 °C 5.3 °F /  -14.8 °C 30.35in /  1027.7hPa SW 4.0mph /  6.4km/h 6.0mph /  9.7km/h 84% 0.00in /  0mm
00:19 9.2 °F /  -12.7 °C 5.3 °F /  -14.8 °C 30.35in /  1027.7hPa SW 2.0mph /  3.2km/h 5.0mph /  8km/h 84% 0.00in /  0mm
00:24 9.2 °F /  -12.7 °C 5.3 °F /  -14.8 °C 30.35in /  1027.7hPa SW 3.0mph /  4.8km/h 5.0mph /  8km/h 84% 0.00in /  0mm
00:29 9.1 °F /  -12.7 °C 5.2 °F /  -14.9 °C 30.34in /  1027.3hPa SW 2.0mph /  3.2km/h 5.0mph /  8km/h 84% 0.00in /  0mm
00:34 9.2 °F /  -12.7 °C 5.6 °F /  -14.7 °C 30.34in /  1027.3hPa SSW 1.0mph /  1.6km/h 5.0mph /  8km/h 85% 0.00in /  0mm
00:39 9.3 °F /  -12.6 °C 5.4 °F /  -14.8 °C 30.34in /  1027.3hPa SSW 5.0mph /  8km/h 6.0mph /  9.7km/h 84% 0.00in /  0mm
00:44 9.3 °F /  -12.6 °C 5.7 °F /  -14.6 °C 30.34in /  1027.3hPa SSW 3.0mph /  4.8km/h 5.0mph /  8km/h 85% 0.00in /  0mm
00:49 9.4 °F /  -12.6 °C 5.8 °F /  -14.6 °C 30.34in /  1027.3hPa SSW 2.0mph /  3.2km/h 6.0mph /  9.7km/h 85% 0.00in /  0mm
00:54 9.4 °F /  -12.6 °C 5.8 °F /  -14.6 °C 30.34in /  1027.3hPa SW 1.0mph /  1.6km/h 5.0mph /  8km/h 85% 0.00in /  0mm
00:59 9.5 °F /  -12.5 °C 5.9 °F /  -14.5 °C 30.34in /  1027.3hPa SSW 3.0mph /  4.8km/h 6.0mph /  9.7km/h 85% 0.00in /  0mm
01:04 9.5 °F /  -12.5 °C 5.9 °F /  -14.5 °C 30.35in /  1027.7hPa SSW 3.0mph /  4.8km/h 6.0mph /  9.7km/h 85% 0.00in /  0mm
01:09 9.4 °F /  -12.6 °C 5.8 °F /  -14.6 °C 30.35in /  1027.7hPa SSW 3.0mph /  4.8km/h 6.0mph /  9.7km/h 85% 0.00in /  0mm
01:14 9.3 °F /  -12.6 °C 5.7 °F /  -14.6 °C 30.35in /  1027.7hPa Calm   6.0mph /  9.7km/h 85% 0.00in /  0mm
01:19 9.2 °F /  -12.7 °C 5.6 °F /  -14.7 °C 30.35in /  1027.7hPa SW 2.0mph /  3.2km/h 7.0mph /  11.3km/h 85% 0.00in /  0mm
01:24 9.1 °F /  -12.7 °C 5.5 °F /  -14.7 °C 30.35in /  1027.7hPa WSW 3.0mph /  4.8km/h 5.0mph /  8km/h 85% 0.00in /  0mm
01:29 8.9 °F /  -12.8 °C 5.3 °F /  -14.8 °C 30.36in /  1028hPa SW 3.0mph /  4.8km/h 7.0mph /  11.3km/h 85% 0.00in /  0mm
01:34 9.0 °F /  -12.8 °C 5.4 °F /  -14.8 °C 30.36in /  1028hPa SW 3.0mph /  4.8km/h 7.0mph /  11.3km/h 85% 0.00in /  0mm
01:39 9.1 °F /  -12.7 °C 5.5 °F /  -14.7 °C 30.36in /  1028hPa SW 3.0mph /  4.8km/h 8.0mph /  12.9km/h 85% 0.00in /  0mm
01:44 9.3 °F /  -12.6 °C 6.0 °F /  -14.4 °C 30.37in /  1028.3hPa WSW 5.0mph /  8km/h 8.0mph /  12.9km/h 86% 0.00in /  0mm
01:49 9.5 °F /  -12.5 °C 6.2 °F /  -14.3 °C 30.37in /  1028.3hPa SW 3.0mph /  4.8km/h 8.0mph /  12.9km/h 86% 0.00in /  0mm
01:54 9.6 °F /  -12.4 °C 6.3 °F /  -14.3 °C 30.37in /  1028.3hPa SW 6.0mph /  9.7km/h 13.0mph /  20.9km/h 86% 0.00in /  0mm
01:59 9.9 °F /  -12.3 °C 6.6 °F /  -14.1 °C 30.37in /  1028.3hPa SW 3.0mph /  4.8km/h 9.0mph /  14.5km/h 86% 0.00in /  0mm
02:04 10.1 °F /  -12.2 °C 6.7 °F /  -14.1 °C 30.37in /  1028.3hPa SW 3.0mph /  4.8km/h 9.0mph /  14.5km/h 86% 0.00in /  0mm
02:09 10.4 °F /  -12 °C 7.0 °F /  -13.9 °C 30.37in /  1028.3hPa SW 3.0mph /  4.8km/h 7.0mph /  11.3km/h 86% 0.00in /  0mm
02:14 10.6 °F /  -11.9 °C 7.2 °F /  -13.8 °C 30.37in /  1028.3hPa SW 3.0mph /  4.8km/h 7.0mph /  11.3km/h 86% 0.00in /  0mm
02:19 10.8 °F /  -11.8 °C 7.4 °F /  -13.7 °C 30.37in /  1028.3hPa SW 3.0mph /  4.8km/h 7.0mph /  11.3km/h 86% 0.00in /  0mm
02:24 10.9 °F /  -11.7 °C 7.5 °F /  -13.6 °C 30.37in /  1028.3hPa WSW 3.0mph /  4.8km/h 8.0mph /  12.9km/h 86% 0.00in /  0mm
02:29 11.0 °F /  -11.7 °C 7.6 °F /  -13.6 °C 30.37in /  1028.3hPa SW 2.0mph /  3.2km/h 7.0mph /  11.3km/h 86% 0.00in /  0mm
02:34 11.1 °F /  -11.6 °C 7.7 °F /  -13.5 °C 30.37in /  1028.3hPa SW 4.0mph /  6.4km/h 8.0mph /  12.9km/h 86% 0.00in /  0mm
02:39 11.2 °F /  -11.6 °C 7.6 °F /  -13.6 °C 30.37in /  1028.3hPa SW 4.0mph /  6.4km/h 8.0mph /  12.9km/h 85% 0.00in /  0mm
02:44 11.3 °F /  -11.5 °C 7.7 °F /  -13.5 °C 30.37in /  1028.3hPa South 2.0mph /  3.2km/h 10.0mph /  16.1km/h 85% 0.00in /  0mm
02:49 11.3 °F /  -11.5 °C 7.7 °F /  -13.5 °C 30.37in /  1028.3hPa SW 8.0mph /  12.9km/h 9.0mph /  14.5km/h 85% 0.00in /  0mm
02:54 11.3 °F /  -11.5 °C 7.7 °F /  -13.5 °C 30.37in /  1028.3hPa SSW 4.0mph /  6.4km/h 9.0mph /  14.5km/h 85% 0.00in /  0mm
02:59 11.2 °F /  -11.6 °C 7.6 °F /  -13.6 °C 30.37in /  1028.3hPa SW 5.0mph /  8km/h 7.0mph /  11.3km/h 85% 0.00in /  0mm
03:04 11.0 °F /  -11.7 °C 7.4 °F /  -13.7 °C 30.37in /  1028.3hPa SW 4.0mph /  6.4km/h 7.0mph /  11.3km/h 85% 0.00in /  0mm
03:09 11.0 °F /  -11.7 °C 7.4 °F /  -13.7 °C 30.37in /  1028.3hPa SW 4.0mph /  6.4km/h 8.0mph /  12.9km/h 85% 0.00in /  0mm
03:14 11.0 °F /  -11.7 °C 7.4 °F /  -13.7 °C 30.37in /  1028.3hPa WSW 3.0mph /  4.8km/h 8.0mph /  12.9km/h 85% 0.00in /  0mm
03:19 11.0 °F /  -11.7 °C 7.4 °F /  -13.7 °C 30.37in /  1028.3hPa WSW 3.0mph /  4.8km/h 6.0mph /  9.7km/h 85% 0.00in /  0mm
03:24 11.0 °F /  -11.7 °C 7.4 °F /  -13.7 °C 30.37in /  1028.3hPa Calm   5.0mph /  8km/h 85% 0.00in /  0mm
03:29 10.9 °F /  -11.7 °C 7.3 °F /  -13.7 °C 30.37in /  1028.3hPa SW 2.0mph /  3.2km/h 5.0mph /  8km/h 85% 0.00in /  0mm
03:34 10.6 °F /  -11.9 °C 7.0 °F /  -13.9 °C 30.37in /  1028.3hPa SW 3.0mph /  4.8km/h 5.0mph /  8km/h 85% 0.00in /  0mm
03:39 10.4 °F /  -12 °C 6.8 °F /  -14 °C 30.37in /  1028.3hPa SW 1.0mph /  1.6km/h 4.0mph /  6.4km/h 85% 0.00in /  0mm
03:44 10.1 °F /  -12.2 °C 6.5 °F /  -14.2 °C 30.37in /  1028.3hPa SW 2.0mph /  3.2km/h 4.0mph /  6.4km/h 85% 0.00in /  0mm
03:49 9.8 °F /  -12.3 °C 5.9 °F /  -14.5 °C 30.37in /  1028.3hPa SW 1.0mph /  1.6km/h 3.0mph /  4.8km/h 84% 0.00in /  0mm
03:54 9.5 °F /  -12.5 °C 5.9 °F /  -14.5 °C 30.37in /  1028.3hPa Calm   2.0mph /  3.2km/h 85% 0.00in /  0mm
03:59 9.3 °F /  -12.6 °C 5.7 °F /  -14.6 °C 30.37in /  1028.3hPa SW 1.0mph /  1.6km/h 2.0mph /  3.2km/h 85% 0.00in /  0mm
04:04 9.5 °F /  -12.5 °C 5.9 °F /  -14.5 °C 30.37in /  1028.3hPa SW 3.0mph /  4.8km/h 4.0mph /  6.4km/h 85% 0.00in /  0mm
04:09 9.8 °F /  -12.3 °C 6.2 °F /  -14.3 °C 30.37in /  1028.3hPa SW 2.0mph /  3.2km/h 5.0mph /  8km/h 85% 0.00in /  0mm
04:14 10.1 °F /  -12.2 °C 6.5 °F /  -14.2 °C 30.37in /  1028.3hPa SW 2.0mph /  3.2km/h 5.0mph /  8km/h 85% 0.00in /  0mm
04:19 10.4 °F /  -12 °C 6.8 °F /  -14 °C 30.37in /  1028.3hPa SW 3.0mph /  4.8km/h 5.0mph /  8km/h 85% 0.00in /  0mm
04:24 10.7 °F /  -11.8 °C 7.1 °F /  -13.8 °C 30.37in /  1028.3hPa SW 2.0mph /  3.2km/h 6.0mph /  9.7km/h 85% 0.00in /  0mm
04:29 10.8 °F /  -11.8 °C 7.4 °F /  -13.7 °C 30.37in /  1028.3hPa SW 2.0mph /  3.2km/h 6.0mph /  9.7km/h 86% 0.00in /  0mm
04:34 11.0 °F /  -11.7 °C 7.6 °F /  -13.6 °C 30.37in /  1028.3hPa SW 2.0mph /  3.2km/h 5.0mph /  8km/h 86% 0.00in /  0mm
04:39 11.2 °F /  -11.6 °C 7.6 °F /  -13.6 °C 30.38in /  1028.7hPa SW 2.0mph /  3.2km/h 6.0mph /  9.7km/h 85% 0.00in /  0mm
04:44 11.4 °F /  -11.4 °C 8.0 °F /  -13.3 °C 30.38in /  1028.7hPa SW 3.0mph /  4.8km/h 8.0mph /  12.9km/h 86% 0.00in /  0mm
04:49 11.4 °F /  -11.4 °C 8.0 °F /  -13.3 °C 30.38in /  1028.7hPa SW 3.0mph /  4.8km/h 8.0mph /  12.9km/h 86% 0.00in /  0mm
04:54 11.6 °F /  -11.3 °C 8.2 °F /  -13.2 °C 30.38in /  1028.7hPa SSW 3.0mph /  4.8km/h 6.0mph /  9.7km/h 86% 0.00in /  0mm
04:59 11.7 °F /  -11.3 °C 8.3 °F /  -13.2 °C 30.38in /  1028.7hPa SW 5.0mph /  8km/h 7.0mph /  11.3km/h 86% 0.00in /  0mm
05:04 11.8 °F /  -11.2 °C 8.2 °F /  -13.2 °C 30.38in /  1028.7hPa SW 3.0mph /  4.8km/h 6.0mph /  9.7km/h 85% 0.00in /  0mm
05:09 11.9 °F /  -11.2 °C 8.3 °F /  -13.2 °C 30.38in /  1028.7hPa SW 4.0mph /  6.4km/h 7.0mph /  11.3km/h 85% 0.00in /  0mm
05:14 11.9 °F /  -11.2 °C 8.5 °F /  -13.1 °C 30.38in /  1028.7hPa SW 4.0mph /  6.4km/h 7.0mph /  11.3km/h 86% 0.00in /  0mm
05:19 11.7 °F /  -11.3 °C 8.1 °F /  -13.3 °C 30.38in /  1028.7hPa SW 3.0mph /  4.8km/h 7.0mph /  11.3km/h 85% 0.00in /  0mm
05:24 11.6 °F /  -11.3 °C 8.0 °F /  -13.3 °C 30.38in /  1028.7hPa SW 4.0mph /  6.4km/h 6.0mph /  9.7km/h 85% 0.00in /  0mm
05:29 11.6 °F /  -11.3 °C 8.0 °F /  -13.3 °C 30.38in /  1028.7hPa SSW 4.0mph /  6.4km/h 7.0mph /  11.3km/h 85% 0.00in /  0mm
05:34 11.6 °F /  -11.3 °C 8.0 °F /  -13.3 °C 30.39in /  1029hPa SW 3.0mph /  4.8km/h 7.0mph /  11.3km/h 85% 0.00in /  0mm
05:39 11.7 °F /  -11.3 °C 8.1 °F /  -13.3 °C 30.39in /  1029hPa WSW 3.0mph /  4.8km/h 7.0mph /  11.3km/h 85% 0.00in /  0mm
05:44 11.8 °F /  -11.2 °C 8.4 °F /  -13.1 °C 30.39in /  1029hPa SW 4.0mph /  6.4km/h 8.0mph /  12.9km/h 86% 0.00in /  0mm
05:49 11.8 °F /  -11.2 °C 8.4 °F /  -13.1 °C 30.39in /  1029hPa SW 4.0mph /  6.4km/h 8.0mph /  12.9km/h 86% 0.00in /  0mm
05:54 11.9 °F /  -11.2 °C 8.5 °F /  -13.1 °C 30.39in /  1029hPa SW 3.0mph /  4.8km/h 7.0mph /  11.3km/h 86% 0.00in /  0mm
05:59 12.0 °F /  -11.1 °C 8.6 °F /  -13 °C 30.39in /  1029hPa SW 5.0mph /  8km/h 7.0mph /  11.3km/h 86% 0.00in /  0mm
06:04 12.0 °F /  -11.1 °C 8.6 °F /  -13 °C 30.39in /  1029hPa SSW 6.0mph /  9.7km/h 7.0mph /  11.3km/h 86% 0.00in /  0mm
06:09 12.1 °F /  -11.1 °C 8.7 °F /  -12.9 °C 30.39in /  1029hPa SSW 4.0mph /  6.4km/h 7.0mph /  11.3km/h 86% 0.00in /  0mm
06:14 12.2 °F /  -11 °C 8.6 °F /  -13 °C 30.39in /  1029hPa SW 5.0mph /  8km/h 8.0mph /  12.9km/h 85% 0.00in /  0mm
06:19 12.2 °F /  -11 °C 8.6 °F /  -13 °C 30.39in /  1029hPa SW 3.0mph /  4.8km/h 8.0mph /  12.9km/h 85% 0.00in /  0mm
06:24 12.3 °F /  -10.9 °C 8.7 °F /  -12.9 °C 30.40in /  1029.3hPa SW 3.0mph /  4.8km/h 6.0mph /  9.7km/h 85% 0.00in /  0mm
06:29 12.3 °F /  -10.9 °C 8.7 °F /  -12.9 °C 30.40in /  1029.3hPa SW 3.0mph /  4.8km/h 7.0mph /  11.3km/h 85% 0.00in /  0mm
06:34 12.4 °F /  -10.9 °C 8.7 °F /  -12.9 °C 30.40in /  1029.3hPa SW 3.0mph /  4.8km/h 7.0mph /  11.3km/h 85% 0.00in /  0mm
06:39 12.4 °F /  -10.9 °C 8.7 °F /  -12.9 °C 30.40in /  1029.3hPa SW 2.0mph /  3.2km/h 7.0mph /  11.3km/h 85% 0.00in /  0mm
06:44 12.4 °F /  -10.9 °C 8.7 °F /  -12.9 °C 30.39in /  1029hPa SW 7.0mph /  11.3km/h 7.0mph /  11.3km/h 85% 0.00in /  0mm
06:49 12.4 °F /  -10.9 °C 8.7 °F /  -12.9 °C 30.39in /  1029hPa SSW 3.0mph /  4.8km/h 7.0mph /  11.3km/h 85% 0.00in /  0mm
06:54 12.4 °F /  -10.9 °C 8.7 °F /  -12.9 °C 30.40in /  1029.3hPa SSW 3.0mph /  4.8km/h 7.0mph /  11.3km/h 85% 0.00in /  0mm
06:59 12.3 °F /  -10.9 °C 8.7 °F /  -12.9 °C 30.40in /  1029.3hPa SSW 3.0mph /  4.8km/h 4.0mph /  6.4km/h 85% 0.00in /  0mm
07:04 12.4 °F /  -10.9 °C 8.7 °F /  -12.9 °C 30.40in /  1029.3hPa SSW 1.0mph /  1.6km/h 6.0mph /  9.7km/h 85% 0.00in /  0mm
07:09 12.4 °F /  -10.9 °C 8.7 °F /  -12.9 °C 30.40in /  1029.3hPa SSW 4.0mph /  6.4km/h 5.0mph /  8km/h 85% 0.00in /  0mm
07:14 12.5 °F /  -10.8 °C 8.8 °F /  -12.9 °C 30.40in /  1029.3hPa SSW 2.0mph /  3.2km/h 7.0mph /  11.3km/h 85% 0.00in /  0mm
07:19 12.5 °F /  -10.8 °C 8.8 °F /  -12.9 °C 30.40in /  1029.3hPa SSW 4.0mph /  6.4km/h 7.0mph /  11.3km/h 85% 0.00in /  0mm
07:24 12.6 °F /  -10.8 °C 8.9 °F /  -12.8 °C 30.40in /  1029.3hPa SSW 3.0mph /  4.8km/h 7.0mph /  11.3km/h 85% 0.00in /  0mm
07:29 12.6 °F /  -10.8 °C 8.9 °F /  -12.8 °C 30.40in /  1029.3hPa South 6.0mph /  9.7km/h 11.0mph /  17.7km/h 85% 0.00in /  0mm
07:34 12.6 °F /  -10.8 °C 8.9 °F /  -12.8 °C 30.40in /  1029.3hPa SW 3.0mph /  4.8km/h 9.0mph /  14.5km/h 85% 0.00in /  0mm
07:39 12.6 °F /  -10.8 °C 8.9 °F /  -12.8 °C 30.40in /  1029.3hPa South 5.0mph /  8km/h 8.0mph /  12.9km/h 85% 0.00in /  0mm
07:44 12.5 °F /  -10.8 °C 8.8 °F /  -12.9 °C 30.40in /  1029.3hPa SW 5.0mph /  8km/h 11.0mph /  17.7km/h 85% 0.00in /  0mm
07:49 12.5 °F /  -10.8 °C 8.8 °F /  -12.9 °C 30.41in /  1029.7hPa SW 5.0mph /  8km/h 9.0mph /  14.5km/h 85% 0.00in /  0mm
07:54 12.3 °F /  -10.9 °C 8.7 °F /  -12.9 °C 30.41in /  1029.7hPa SW 4.0mph /  6.4km/h 8.0mph /  12.9km/h 85% 0.00in /  0mm
07:59 12.3 °F /  -10.9 °C 8.4 °F /  -13.1 °C 30.42in /  1030hPa SW 5.0mph /  8km/h 9.0mph /  14.5km/h 84% 0.00in /  0mm
08:04 12.3 °F /  -10.9 °C 8.7 °F /  -12.9 °C 30.41in /  1029.7hPa SW 5.0mph /  8km/h 10.0mph /  16.1km/h 85% 0.00in /  0mm
08:09 12.5 °F /  -10.8 °C 8.8 °F /  -12.9 °C 30.42in /  1030hPa SW 4.0mph /  6.4km/h 10.0mph /  16.1km/h 85% 0.00in /  0mm
08:14 12.8 °F /  -10.7 °C 8.9 °F /  -12.8 °C 30.42in /  1030hPa SW 3.0mph /  4.8km/h 8.0mph /  12.9km/h 84% 0.00in /  0mm
08:19 13.0 °F /  -10.6 °C 9.1 °F /  -12.7 °C 30.42in /  1030hPa SW 4.0mph /  6.4km/h 8.0mph /  12.9km/h 84% 0.00in /  0mm
08:24 13.2 °F /  -10.4 °C 9.3 °F /  -12.6 °C 30.42in /  1030hPa SW 4.0mph /  6.4km/h 7.0mph /  11.3km/h 84% 0.00in /  0mm
08:29 13.6 °F /  -10.2 °C 9.7 °F /  -12.4 °C 30.42in /  1030hPa SW 4.0mph /  6.4km/h 8.0mph /  12.9km/h 84% 0.00in /  0mm
08:34 13.9 °F /  -10.1 °C 10.0 °F /  -12.2 °C 30.42in /  1030hPa SW 3.0mph /  4.8km/h 8.0mph /  12.9km/h 84% 0.00in /  0mm
08:39 14.2 °F /  -9.9 °C 10.3 °F /  -12.1 °C 30.43in /  1030.4hPa SW 3.0mph /  4.8km/h 6.0mph /  9.7km/h 84% 0.00in /  0mm
08:44 14.4 °F /  -9.8 °C 10.2 °F /  -12.1 °C 30.42in /  1030hPa SSW 3.0mph /  4.8km/h 6.0mph /  9.7km/h 83% 0.00in /  0mm
08:49 14.6 °F /  -9.7 °C 10.4 °F /  -12 °C 30.42in /  1030hPa SW 3.0mph /  4.8km/h 6.0mph /  9.7km/h 83% 0.00in /  0mm
08:54 14.9 °F /  -9.5 °C 10.4 °F /  -12 °C 30.42in /  1030hPa SW 5.0mph /  8km/h 8.0mph /  12.9km/h 82% 0.00in /  0mm
08:59 15.0 °F /  -9.4 °C 10.5 °F /  -11.9 °C 30.43in /  1030.4hPa SW 2.0mph /  3.2km/h 7.0mph /  11.3km/h 82% 0.00in /  0mm
09:04 15.2 °F /  -9.3 °C 10.4 °F /  -12 °C 30.42in /  1030hPa SW 3.0mph /  4.8km/h 7.0mph /  11.3km/h 81% 0.00in /  0mm
09:09 15.5 °F /  -9.2 °C 10.7 °F /  -11.8 °C 30.42in /  1030hPa SW 3.0mph /  4.8km/h 6.0mph /  9.7km/h 81% 0.00in /  0mm
09:14 15.9 °F /  -8.9 °C 10.8 °F /  -11.8 °C 30.42in /  1030hPa SW 3.0mph /  4.8km/h 11.0mph /  17.7km/h 80% 0.00in /  0mm
09:19 16.1 °F /  -8.8 °C 11.0 °F /  -11.7 °C 30.42in /  1030hPa SW 5.0mph /  8km/h 11.0mph /  17.7km/h 80% 0.00in /  0mm
09:24 16.3 °F /  -8.7 °C 10.9 °F /  -11.7 °C 30.43in /  1030.4hPa SW 5.0mph /  8km/h 11.0mph /  17.7km/h 79% 0.00in /  0mm
09:29 16.4 °F /  -8.7 °C 11.0 °F /  -11.7 °C 30.43in /  1030.4hPa SW 5.0mph /  8km/h 11.0mph /  17.7km/h 79% 0.00in /  0mm
09:34 16.6 °F /  -8.6 °C 11.2 °F /  -11.6 °C 30.43in /  1030.4hPa WSW 7.0mph /  11.3km/h 11.0mph /  17.7km/h 79% 0.00in /  0mm
09:39 16.7 °F /  -8.5 °C 11.0 °F /  -11.7 °C 30.43in /  1030.4hPa WSW 3.0mph /  4.8km/h 11.0mph /  17.7km/h 78% 0.00in /  0mm
09:44 16.9 °F /  -8.4 °C 11.2 °F /  -11.6 °C 30.43in /  1030.4hPa SSW 6.0mph /  9.7km/h 10.0mph /  16.1km/h 78% 0.00in /  0mm
09:49 17.0 °F /  -8.3 °C 11.3 °F /  -11.5 °C 30.42in /  1030hPa SW 5.0mph /  8km/h 11.0mph /  17.7km/h 78% 0.00in /  0mm
09:54 17.2 °F /  -8.2 °C 11.5 °F /  -11.4 °C 30.43in /  1030.4hPa SW 5.0mph /  8km/h 8.0mph /  12.9km/h 78% 0.00in /  0mm
09:59 17.2 °F /  -8.2 °C 11.5 °F /  -11.4 °C 30.43in /  1030.4hPa WSW 3.0mph /  4.8km/h 13.0mph /  20.9km/h 78% 0.00in /  0mm
10:04 17.5 °F /  -8.1 °C 11.8 °F /  -11.2 °C 30.43in /  1030.4hPa SW 5.0mph /  8km/h 7.0mph /  11.3km/h 78% 0.00in /  0mm
10:09 17.6 °F /  -8 °C 11.6 °F /  -11.3 °C 30.43in /  1030.4hPa WSW 5.0mph /  8km/h 9.0mph /  14.5km/h 77% 0.00in /  0mm
10:14 17.8 °F /  -7.9 °C 11.8 °F /  -11.2 °C 30.43in /  1030.4hPa WSW 5.0mph /  8km/h 10.0mph /  16.1km/h 77% 0.00in /  0mm
10:19 17.8 °F /  -7.9 °C 11.8 °F /  -11.2 °C 30.43in /  1030.4hPa WSW 5.0mph /  8km/h 10.0mph /  16.1km/h 77% 0.00in /  0mm
10:24 17.9 °F /  -7.8 °C 11.9 °F /  -11.2 °C 30.43in /  1030.4hPa WSW 5.0mph /  8km/h 10.0mph /  16.1km/h 77% 0.00in /  0mm
10:29 18.0 °F /  -7.8 °C 12.0 °F /  -11.1 °C 30.43in /  1030.4hPa WSW 5.0mph /  8km/h 10.0mph /  16.1km/h 77% 0.00in /  0mm
10:34 18.2 °F /  -7.7 °C 12.2 °F /  -11 °C 30.43in /  1030.4hPa WSW 5.0mph /  8km/h 10.0mph /  16.1km/h 77% 0.00in /  0mm
10:39 18.3 °F /  -7.6 °C 12.0 °F /  -11.1 °C 30.43in /  1030.4hPa SW 7.0mph /  11.3km/h 11.0mph /  17.7km/h 76% 0.00in /  0mm
10:44 18.2 °F /  -7.7 °C 11.9 °F /  -11.2 °C 30.43in /  1030.4hPa SW 7.0mph /  11.3km/h 11.0mph /  17.7km/h 76% 0.00in /  0mm
10:49 18.3 °F /  -7.6 °C 12.3 °F /  -10.9 °C 30.43in /  1030.4hPa WSW 4.0mph /  6.4km/h 10.0mph /  16.1km/h 77% 0.00in /  0mm
10:54 18.5 °F /  -7.5 °C 12.5 °F /  -10.8 °C 30.43in /  1030.4hPa West 8.0mph /  12.9km/h 10.0mph /  16.1km/h 77% 0.00in /  0mm
10:59 18.5 °F /  -7.5 °C 12.5 °F /  -10.8 °C 30.43in /  1030.4hPa SSW 7.0mph /  11.3km/h 13.0mph /  20.9km/h 77% 0.00in /  0mm
11:04 18.5 °F /  -7.5 °C 12.5 °F /  -10.8 °C 30.43in /  1030.4hPa SW 8.0mph /  12.9km/h 10.0mph /  16.1km/h 77% 0.00in /  0mm
11:09 18.5 °F /  -7.5 °C 12.8 °F /  -10.7 °C 30.42in /  1030hPa SW 6.0mph /  9.7km/h 12.0mph /  19.3km/h 78% 0.00in /  0mm
11:14 18.8 °F /  -7.3 °C 13.1 °F /  -10.5 °C 30.42in /  1030hPa SW 6.0mph /  9.7km/h 12.0mph /  19.3km/h 78% 0.00in /  0mm
11:19 18.8 °F /  -7.3 °C 13.1 °F /  -10.5 °C 30.42in /  1030hPa SW 7.0mph /  11.3km/h 12.0mph /  19.3km/h 78% 0.00in /  0mm
11:24 18.9 °F /  -7.3 °C 13.2 °F /  -10.4 °C 30.42in /  1030hPa WSW 6.0mph /  9.7km/h 13.0mph /  20.9km/h 78% 0.00in /  0mm
11:29 19.2 °F /  -7.1 °C 13.5 °F /  -10.3 °C 30.42in /  1030hPa WSW 6.0mph /  9.7km/h 13.0mph /  20.9km/h 78% 0.00in /  0mm
11:34 19.1 °F /  -7.2 °C 13.1 °F /  -10.5 °C 30.42in /  1030hPa WSW 9.0mph /  14.5km/h 14.0mph /  22.5km/h 77% 0.00in /  0mm
11:39 19.0 °F /  -7.2 °C 13.0 °F /  -10.6 °C 30.41in /  1029.7hPa SW 4.0mph /  6.4km/h 10.0mph /  16.1km/h 77% 0.00in /  0mm
11:44 19.3 °F /  -7.1 °C 13.3 °F /  -10.4 °C 30.41in /  1029.7hPa WSW 6.0mph /  9.7km/h 12.0mph /  19.3km/h 77% 0.00in /  0mm
11:49 19.1 °F /  -7.2 °C 13.1 °F /  -10.5 °C 30.41in /  1029.7hPa West 5.0mph /  8km/h 14.0mph /  22.5km/h 77% 0.00in /  0mm
11:54 19.0 °F /  -7.2 °C 13.0 °F /  -10.6 °C 30.41in /  1029.7hPa WSW 8.0mph /  12.9km/h 14.0mph /  22.5km/h 77% 0.00in /  0mm
11:59 19.3 °F /  -7.1 °C 13.3 °F /  -10.4 °C 30.41in /  1029.7hPa WSW 6.0mph /  9.7km/h 14.0mph /  22.5km/h 77% 0.00in /  0mm
12:04 19.0 °F /  -7.2 °C 13.0 °F /  -10.6 °C 30.40in /  1029.3hPa WSW 10.0mph /  16.1km/h 12.0mph /  19.3km/h 77% 0.00in /  0mm
12:09 19.3 °F /  -7.1 °C 13.3 °F /  -10.4 °C 30.40in /  1029.3hPa WSW 2.0mph /  3.2km/h 11.0mph /  17.7km/h 77% 0.00in /  0mm
12:14 19.9 °F /  -6.7 °C 13.9 °F /  -10.1 °C 30.40in /  1029.3hPa WSW 6.0mph /  9.7km/h 11.0mph /  17.7km/h 77% 0.00in /  0mm
12:19 20.1 °F /  -6.6 °C 14.0 °F /  -10 °C 30.40in /  1029.3hPa WSW 5.0mph /  8km/h 11.0mph /  17.7km/h 77% 0.00in /  0mm
12:24 19.8 °F /  -6.8 °C 13.5 °F /  -10.3 °C 30.39in /  1029hPa SW 5.0mph /  8km/h 10.0mph /  16.1km/h 76% 0.00in /  0mm
12:29 19.8 °F /  -6.8 °C 13.5 °F /  -10.3 °C 30.39in /  1029hPa SW 5.0mph /  8km/h 11.0mph /  17.7km/h 76% 0.00in /  0mm
12:34 19.6 °F /  -6.9 °C 13.3 °F /  -10.4 °C 30.39in /  1029hPa WSW 7.0mph /  11.3km/h 10.0mph /  16.1km/h 76% 0.00in /  0mm
12:39 19.7 °F /  -6.8 °C 13.4 °F /  -10.3 °C 30.39in /  1029hPa SW 7.0mph /  11.3km/h 9.0mph /  14.5km/h 76% 0.00in /  0mm
12:44 19.5 °F /  -6.9 °C 12.9 °F /  -10.6 °C 30.39in /  1029hPa SW 7.0mph /  11.3km/h 12.0mph /  19.3km/h 75% 0.00in /  0mm
12:49 19.4 °F /  -7 °C 13.1 °F /  -10.5 °C 30.38in /  1028.7hPa SW 6.0mph /  9.7km/h 12.0mph /  19.3km/h 76% 0.00in /  0mm
12:54 19.3 °F /  -7.1 °C 13.0 °F /  -10.6 °C 30.38in /  1028.7hPa SW 6.0mph /  9.7km/h 11.0mph /  17.7km/h 76% 0.00in /  0mm
12:59 19.3 °F /  -7.1 °C 13.0 °F /  -10.6 °C 30.38in /  1028.7hPa SW 8.0mph /  12.9km/h 10.0mph /  16.1km/h 76% 0.00in /  0mm
13:04 19.6 °F /  -6.9 °C 13.3 °F /  -10.4 °C 30.37in /  1028.3hPa WSW 9.0mph /  14.5km/h 9.0mph /  14.5km/h 76% 0.00in /  0mm
13:09 19.4 °F /  -7 °C 13.1 °F /  -10.5 °C 30.37in /  1028.3hPa SW 6.0mph /  9.7km/h 13.0mph /  20.9km/h 76% 0.00in /  0mm
13:14 19.5 °F /  -6.9 °C 13.5 °F /  -10.3 °C 30.37in /  1028.3hPa SSW 6.0mph /  9.7km/h 10.0mph /  16.1km/h 77% 0.00in /  0mm
13:19 19.7 °F /  -6.8 °C 13.7 °F /  -10.2 °C 30.37in /  1028.3hPa SSW 4.0mph /  6.4km/h 10.0mph /  16.1km/h 77% 0.00in /  0mm
13:24 19.5 °F /  -6.9 °C 13.5 °F /  -10.3 °C 30.37in /  1028.3hPa SW 7.0mph /  11.3km/h 13.0mph /  20.9km/h 77% 0.00in /  0mm
13:29 19.2 °F /  -7.1 °C 13.2 °F /  -10.4 °C 30.37in /  1028.3hPa WSW 7.0mph /  11.3km/h 16.0mph /  25.7km/h 77% 0.00in /  0mm
13:34 19.3 °F /  -7.1 °C 13.3 °F /  -10.4 °C 30.37in /  1028.3hPa WSW 7.0mph /  11.3km/h 16.0mph /  25.7km/h 77% 0.00in /  0mm
13:39 19.7 °F /  -6.8 °C 13.7 °F /  -10.2 °C 30.37in /  1028.3hPa WSW 7.0mph /  11.3km/h 14.0mph /  22.5km/h 77% 0.00in /  0mm
13:44 19.2 °F /  -7.1 °C 12.9 °F /  -10.6 °C 30.37in /  1028.3hPa WSW 7.0mph /  11.3km/h 15.0mph /  24.1km/h 76% 0.00in /  0mm
13:49 19.1 °F /  -7.2 °C 13.1 °F /  -10.5 °C 30.37in /  1028.3hPa WSW 8.0mph /  12.9km/h 15.0mph /  24.1km/h 77% 0.00in /  0mm
13:54 19.2 °F /  -7.1 °C 13.2 °F /  -10.4 °C 30.36in /  1028hPa WSW 7.0mph /  11.3km/h 15.0mph /  24.1km/h 77% 0.00in /  0mm
13:59 19.2 °F /  -7.1 °C 13.2 °F /  -10.4 °C 30.36in /  1028hPa WSW 5.0mph /  8km/h 12.0mph /  19.3km/h 77% 0.00in /  0mm
14:04 19.5 °F /  -6.9 °C 13.5 °F /  -10.3 °C 30.36in /  1028hPa WSW 13.0mph /  20.9km/h 16.0mph /  25.7km/h 77% 0.00in /  0mm
14:09 19.3 °F /  -7.1 °C 13.0 °F /  -10.6 °C 30.36in /  1028hPa WSW 6.0mph /  9.7km/h 19.0mph /  30.6km/h 76% 0.00in /  0mm
14:14 19.3 °F /  -7.1 °C 12.7 °F /  -10.7 °C 30.37in /  1028.3hPa SW 13.0mph /  20.9km/h 16.0mph /  25.7km/h 75% 0.00in /  0mm
14:19 19.2 °F /  -7.1 °C 12.6 °F /  -10.8 °C 30.37in /  1028.3hPa WSW 4.0mph /  6.4km/h 15.0mph /  24.1km/h 75% 0.00in /  0mm
14:24 19.4 °F /  -7 °C 12.8 °F /  -10.7 °C 30.36in /  1028hPa SSW 5.0mph /  8km/h 10.0mph /  16.1km/h 75% 0.00in /  0mm
14:29 19.6 °F /  -6.9 °C 13.3 °F /  -10.4 °C 30.37in /  1028.3hPa SW 6.0mph /  9.7km/h 16.0mph /  25.7km/h 76% 0.00in /  0mm
14:34 19.5 °F /  -6.9 °C 13.2 °F /  -10.4 °C 30.36in /  1028hPa SW 7.0mph /  11.3km/h 16.0mph /  25.7km/h 76% 0.00in /  0mm
14:39 19.3 °F /  -7.1 °C 12.7 °F /  -10.7 °C 30.37in /  1028.3hPa WSW 8.0mph /  12.9km/h 14.0mph /  22.5km/h 75% 0.00in /  0mm
14:44 19.1 °F /  -7.2 °C 12.5 °F /  -10.8 °C 30.37in /  1028.3hPa WSW 8.0mph /  12.9km/h 20.0mph /  32.2km/h 75% 0.00in /  0mm
14:49 19.1 °F /  -7.2 °C 12.5 °F /  -10.8 °C 30.37in /  1028.3hPa SW 13.0mph /  20.9km/h 13.0mph /  20.9km/h 75% 0.00in /  0mm
14:54 19.1 °F /  -7.2 °C 12.2 °F /  -11 °C 30.37in /  1028.3hPa WSW 8.0mph /  12.9km/h 15.0mph /  24.1km/h 74% 0.00in /  0mm
14:59 19.1 °F /  -7.2 °C 12.2 °F /  -11 °C 30.38in /  1028.7hPa SSW 6.0mph /  9.7km/h 16.0mph /  25.7km/h 74% 0.00in /  0mm
15:04 19.2 °F /  -7.1 °C 12.3 °F /  -10.9 °C 30.37in /  1028.3hPa WSW 8.0mph /  12.9km/h 15.0mph /  24.1km/h 74% 0.00in /  0mm
15:09 19.0 °F /  -7.2 °C 12.4 °F /  -10.9 °C 30.38in /  1028.7hPa WSW 13.0mph /  20.9km/h 14.0mph /  22.5km/h 75% 0.00in /  0mm
15:14 19.1 °F /  -7.2 °C 12.5 °F /  -10.8 °C 30.38in /  1028.7hPa WSW 9.0mph /  14.5km/h 15.0mph /  24.1km/h 75% 0.00in /  0mm
15:19 18.9 °F /  -7.3 °C 12.3 °F /  -10.9 °C 30.38in /  1028.7hPa WSW 6.0mph /  9.7km/h 18.0mph /  29km/h 75% 0.00in /  0mm
15:24 19.1 °F /  -7.2 °C 13.1 °F /  -10.5 °C 30.38in /  1028.7hPa WSW 6.0mph /  9.7km/h 11.0mph /  17.7km/h 77% 0.00in /  0mm
15:29 18.9 °F /  -7.3 °C 12.9 °F /  -10.6 °C 30.38in /  1028.7hPa WSW 7.0mph /  11.3km/h 17.0mph /  27.4km/h 77% 0.00in /  0mm
15:34 18.8 °F /  -7.3 °C 12.8 °F /  -10.7 °C 30.38in /  1028.7hPa WSW 8.0mph /  12.9km/h 17.0mph /  27.4km/h 77% 0.00in /  0mm
15:39 18.8 °F /  -7.3 °C 12.8 °F /  -10.7 °C 30.38in /  1028.7hPa WSW 15.0mph /  24.1km/h 16.0mph /  25.7km/h 77% 0.00in /  0mm
15:44 18.5 °F /  -7.5 °C 12.5 °F /  -10.8 °C 30.38in /  1028.7hPa WSW 8.0mph /  12.9km/h 17.0mph /  27.4km/h 77% 0.00in /  0mm
15:54 18.3 °F /  -7.6 °C 12.6 °F /  -10.8 °C 30.38in /  1028.7hPa WSW 8.0mph /  12.9km/h 14.0mph /  22.5km/h 78% 0.00in /  0mm
15:59 18.1 °F /  -7.7 °C 12.4 °F /  -10.9 °C 30.39in /  1029hPa WSW 6.0mph /  9.7km/h 16.0mph /  25.7km/h 78% 0.00in /  0mm
16:04 18.1 °F /  -7.7 °C 12.4 °F /  -10.9 °C 30.39in /  1029hPa SW 8.0mph /  12.9km/h 16.0mph /  25.7km/h 78% 0.00in /  0mm
16:09 18.0 °F /  -7.8 °C 12.3 °F /  -10.9 °C 30.39in /  1029hPa WSW 3.0mph /  4.8km/h 14.0mph /  22.5km/h 78% 0.00in /  0mm
16:15 18.0 °F /  -7.8 °C 12.3 °F /  -10.9 °C 30.39in /  1029hPa SSW 7.0mph /  11.3km/h 13.0mph /  20.9km/h 78% 0.00in /  0mm
16:20 18.1 °F /  -7.7 °C 12.4 °F /  -10.9 °C 30.39in /  1029hPa West 6.0mph /  9.7km/h 11.0mph /  17.7km/h 78% 0.00in /  0mm
16:29 17.9 °F /  -7.8 °C 12.2 °F /  -11 °C 30.39in /  1029hPa WSW 11.0mph /  17.7km/h 13.0mph /  20.9km/h 78% 0.00in /  0mm
16:34 17.9 °F /  -7.8 °C 12.2 °F /  -11 °C 30.39in /  1029hPa WSW 7.0mph /  11.3km/h 16.0mph /  25.7km/h 78% 0.00in /  0mm
16:39 17.9 °F /  -7.8 °C 12.5 °F /  -10.8 °C 30.39in /  1029hPa WSW 7.0mph /  11.3km/h 16.0mph /  25.7km/h 79% 0.00in /  0mm
16:44 17.7 °F /  -7.9 °C 12.3 °F /  -10.9 °C 30.39in /  1029hPa WSW 8.0mph /  12.9km/h 14.0mph /  22.5km/h 79% 0.00in /  0mm
16:49 17.7 °F /  -7.9 °C 12.3 °F /  -10.9 °C 30.39in /  1029hPa WSW 7.0mph /  11.3km/h 14.0mph /  22.5km/h 79% 0.00in /  0mm
16:54 17.6 °F /  -8 °C 12.5 °F /  -10.8 °C 30.40in /  1029.3hPa WSW 7.0mph /  11.3km/h 13.0mph /  20.9km/h 80% 0.00in /  0mm
16:59 17.5 °F /  -8.1 °C 12.4 °F /  -10.9 °C 30.40in /  1029.3hPa WSW 7.0mph /  11.3km/h 16.0mph /  25.7km/h 80% 0.00in /  0mm
17:04 17.5 °F /  -8.1 °C 12.4 °F /  -10.9 °C 30.40in /  1029.3hPa SSW 5.0mph /  8km/h 15.0mph /  24.1km/h 80% 0.00in /  0mm
17:09 17.4 °F /  -8.1 °C 12.3 °F /  -10.9 °C 30.40in /  1029.3hPa WSW 2.0mph /  3.2km/h 13.0mph /  20.9km/h 80% 0.00in /  0mm
17:14 17.3 °F /  -8.2 °C 12.5 °F /  -10.8 °C 30.40in /  1029.3hPa SSW 9.0mph /  14.5km/h 12.0mph /  19.3km/h 81% 0.00in /  0mm
17:19 17.2 °F /  -8.2 °C 12.4 °F /  -10.9 °C 30.40in /  1029.3hPa SW 9.0mph /  14.5km/h 12.0mph /  19.3km/h 81% 0.00in /  0mm
17:24 17.1 °F /  -8.3 °C 12.3 °F /  -10.9 °C 30.40in /  1029.3hPa WSW 4.0mph /  6.4km/h 13.0mph /  20.9km/h 81% 0.00in /  0mm
17:29 17.2 °F /  -8.2 °C 12.6 °F /  -10.8 °C 30.40in /  1029.3hPa SSW 12.0mph /  19.3km/h 12.0mph /  19.3km/h 82% 0.00in /  0mm
17:34 17.1 °F /  -8.3 °C 12.6 °F /  -10.8 °C 30.40in /  1029.3hPa SW 5.0mph /  8km/h 16.0mph /  25.7km/h 82% 0.00in /  0mm
17:39 17.0 °F /  -8.3 °C 12.5 °F /  -10.8 °C 30.40in /  1029.3hPa WSW 6.0mph /  9.7km/h 16.0mph /  25.7km/h 82% 0.00in /  0mm
17:44 17.0 °F /  -8.3 °C 12.5 °F /  -10.8 °C 30.40in /  1029.3hPa WSW 6.0mph /  9.7km/h 14.0mph /  22.5km/h 82% 0.00in /  0mm
17:49 16.9 °F /  -8.4 °C 12.6 °F /  -10.8 °C 30.40in /  1029.3hPa WSW 6.0mph /  9.7km/h 14.0mph /  22.5km/h 83% 0.00in /  0mm
17:54 16.9 °F /  -8.4 °C 12.6 °F /  -10.8 °C 30.41in /  1029.7hPa SW 5.0mph /  8km/h 10.0mph /  16.1km/h 83% 0.00in /  0mm
17:59 16.9 °F /  -8.4 °C 12.6 °F /  -10.8 °C 30.41in /  1029.7hPa SW 6.0mph /  9.7km/h 13.0mph /  20.9km/h 83% 0.00in /  0mm
18:04 16.9 °F /  -8.4 °C 12.6 °F /  -10.8 °C 30.41in /  1029.7hPa SW 3.0mph /  4.8km/h 13.0mph /  20.9km/h 83% 0.00in /  0mm
18:09 16.9 °F /  -8.4 °C 12.6 °F /  -10.8 °C 30.41in /  1029.7hPa WSW 6.0mph /  9.7km/h 10.0mph /  16.1km/h 83% 0.00in /  0mm
18:14 17.0 °F /  -8.3 °C 12.7 °F /  -10.7 °C 30.41in /  1029.7hPa SW 6.0mph /  9.7km/h 11.0mph /  17.7km/h 83% 0.00in /  0mm
18:19 17.0 °F /  -8.3 °C 13.0 °F /  -10.6 °C 30.41in /  1029.7hPa SW 10.0mph /  16.1km/h 10.0mph /  16.1km/h 84% 0.00in /  0mm
18:24 17.0 °F /  -8.3 °C 13.0 °F /  -10.6 °C 30.41in /  1029.7hPa SW 5.0mph /  8km/h 14.0mph /  22.5km/h 84% 0.00in /  0mm
18:29 16.9 °F /  -8.4 °C 12.9 °F /  -10.6 °C 30.41in /  1029.7hPa WSW 5.0mph /  8km/h 11.0mph /  17.7km/h 84% 0.00in /  0mm
18:34 16.8 °F /  -8.4 °C 12.8 °F /  -10.7 °C 30.41in /  1029.7hPa WSW 4.0mph /  6.4km/h 9.0mph /  14.5km/h 84% 0.00in /  0mm
18:39 16.7 °F /  -8.5 °C 12.7 °F /  -10.7 °C 30.41in /  1029.7hPa WSW 4.0mph /  6.4km/h 11.0mph /  17.7km/h 84% 0.00in /  0mm
18:44 16.7 °F /  -8.5 °C 12.7 °F /  -10.7 °C 30.41in /  1029.7hPa SW 5.0mph /  8km/h 11.0mph /  17.7km/h 84% 0.00in /  0mm
18:49 16.8 °F /  -8.4 °C 12.8 °F /  -10.7 °C 30.42in /  1030hPa WSW 6.0mph /  9.7km/h 10.0mph /  16.1km/h 84% 0.00in /  0mm
18:54 16.9 °F /  -8.4 °C 12.9 °F /  -10.6 °C 30.42in /  1030hPa WSW 6.0mph /  9.7km/h 14.0mph /  22.5km/h 84% 0.00in /  0mm
18:59 16.9 °F /  -8.4 °C 12.9 °F /  -10.6 °C 30.42in /  1030hPa SW 7.0mph /  11.3km/h 14.0mph /  22.5km/h 84% 0.00in /  0mm
19:04 16.9 °F /  -8.4 °C 13.2 °F /  -10.4 °C 30.42in /  1030hPa SW 7.0mph /  11.3km/h 14.0mph /  22.5km/h 85% 0.00in /  0mm
19:09 16.9 °F /  -8.4 °C 13.2 °F /  -10.4 °C 30.42in /  1030hPa SW 5.0mph /  8km/h 15.0mph /  24.1km/h 85% 0.00in /  0mm
19:14 16.9 °F /  -8.4 °C 13.2 °F /  -10.4 °C 30.42in /  1030hPa SW 7.0mph /  11.3km/h 15.0mph /  24.1km/h 85% 0.00in /  0mm
19:19 16.9 °F /  -8.4 °C 13.2 °F /  -10.4 °C 30.42in /  1030hPa WSW 6.0mph /  9.7km/h 12.0mph /  19.3km/h 85% 0.00in /  0mm
19:24 16.8 °F /  -8.4 °C 12.8 °F /  -10.7 °C 30.42in /  1030hPa WSW 6.0mph /  9.7km/h 12.0mph /  19.3km/h 84% 0.00in /  0mm
19:29 16.7 °F /  -8.5 °C 13.0 °F /  -10.6 °C 30.42in /  1030hPa South 8.0mph /  12.9km/h 11.0mph /  17.7km/h 85% 0.00in /  0mm
19:34 16.6 °F /  -8.6 °C 12.9 °F /  -10.6 °C 30.42in /  1030hPa SW 9.0mph /  14.5km/h 11.0mph /  17.7km/h 85% 0.00in /  0mm
19:39 16.5 °F /  -8.6 °C 12.8 °F /  -10.7 °C 30.42in /  1030hPa SW 6.0mph /  9.7km/h 9.0mph /  14.5km/h 85% 0.00in /  0mm
19:44 16.2 °F /  -8.8 °C 12.5 °F /  -10.8 °C 30.42in /  1030hPa SW 5.0mph /  8km/h 10.0mph /  16.1km/h 85% 0.00in /  0mm
19:49 16.2 °F /  -8.8 °C 12.5 °F /  -10.8 °C 30.43in /  1030.4hPa WSW 5.0mph /  8km/h 11.0mph /  17.7km/h 85% 0.00in /  0mm
19:54 16.1 °F /  -8.8 °C 12.4 °F /  -10.9 °C 30.43in /  1030.4hPa WSW 6.0mph /  9.7km/h 12.0mph /  19.3km/h 85% 0.00in /  0mm
19:59 16.1 °F /  -8.8 °C 12.1 °F /  -11.1 °C 30.43in /  1030.4hPa WSW 6.0mph /  9.7km/h 16.0mph /  25.7km/h 84% 0.00in /  0mm
20:04 16.1 °F /  -8.8 °C 12.1 °F /  -11.1 °C 30.43in /  1030.4hPa WSW 9.0mph /  14.5km/h 13.0mph /  20.9km/h 84% 0.00in /  0mm
20:09 16.0 °F /  -8.9 °C 12.0 °F /  -11.1 °C 30.44in /  1030.7hPa SW 8.0mph /  12.9km/h 15.0mph /  24.1km/h 84% 0.00in /  0mm
20:14 16.0 °F /  -8.9 °C 12.0 °F /  -11.1 °C 30.44in /  1030.7hPa WSW 3.0mph /  4.8km/h 13.0mph /  20.9km/h 84% 0.00in /  0mm
20:19 16.0 °F /  -8.9 °C 11.7 °F /  -11.3 °C 30.44in /  1030.7hPa WSW 7.0mph /  11.3km/h 13.0mph /  20.9km/h 83% 0.00in /  0mm
20:24 15.9 °F /  -8.9 °C 11.7 °F /  -11.3 °C 30.44in /  1030.7hPa WSW 6.0mph /  9.7km/h 13.0mph /  20.9km/h 83% 0.00in /  0mm
20:29 15.8 °F /  -9 °C 11.6 °F /  -11.3 °C 30.45in /  1031hPa WSW 9.0mph /  14.5km/h 13.0mph /  20.9km/h 83% 0.00in /  0mm
20:34 15.7 °F /  -9.1 °C 11.5 °F /  -11.4 °C 30.45in /  1031hPa SW 7.0mph /  11.3km/h 11.0mph /  17.7km/h 83% 0.00in /  0mm
20:39 15.6 °F /  -9.1 °C 11.4 °F /  -11.4 °C 30.45in /  1031hPa WSW 9.0mph /  14.5km/h 13.0mph /  20.9km/h 83% 0.00in /  0mm
20:44 15.4 °F /  -9.2 °C 11.2 °F /  -11.6 °C 30.45in /  1031hPa West 6.0mph /  9.7km/h 15.0mph /  24.1km/h 83% 0.00in /  0mm
20:49 15.3 °F /  -9.3 °C 11.1 °F /  -11.6 °C 30.46in /  1031.4hPa SW 7.0mph /  11.3km/h 15.0mph /  24.1km/h 83% 0.00in /  0mm
20:54 15.1 °F /  -9.4 °C 10.9 °F /  -11.7 °C 30.46in /  1031.4hPa WSW 6.0mph /  9.7km/h 13.0mph /  20.9km/h 83% 0.00in /  0mm
20:59 15.1 °F /  -9.4 °C 10.6 °F /  -11.9 °C 30.46in /  1031.4hPa WSW 7.0mph /  11.3km/h 16.0mph /  25.7km/h 82% 0.00in /  0mm
21:04 15.0 °F /  -9.4 °C 10.5 °F /  -11.9 °C 30.46in /  1031.4hPa South 6.0mph /  9.7km/h 14.0mph /  22.5km/h 82% 0.00in /  0mm
21:09 14.8 °F /  -9.6 °C 10.3 °F /  -12.1 °C 30.46in /  1031.4hPa West 7.0mph /  11.3km/h 16.0mph /  25.7km/h 82% 0.00in /  0mm
21:14 14.7 °F /  -9.6 °C 10.2 °F /  -12.1 °C 30.46in /  1031.4hPa SW 4.0mph /  6.4km/h 12.0mph /  19.3km/h 82% 0.00in /  0mm
21:19 14.5 °F /  -9.7 °C 10.0 °F /  -12.2 °C 30.46in /  1031.4hPa West 9.0mph /  14.5km/h 11.0mph /  17.7km/h 82% 0.00in /  0mm
21:24 14.3 °F /  -9.8 °C 9.8 °F /  -12.3 °C 30.46in /  1031.4hPa SW 6.0mph /  9.7km/h 11.0mph /  17.7km/h 82% 0.00in /  0mm
21:29 14.2 °F /  -9.9 °C 9.7 °F /  -12.4 °C 30.46in /  1031.4hPa SW 6.0mph /  9.7km/h 11.0mph /  17.7km/h 82% 0.00in /  0mm
21:34 14.2 °F /  -9.9 °C 9.7 °F /  -12.4 °C 30.47in /  1031.7hPa WSW 6.0mph /  9.7km/h 16.0mph /  25.7km/h 82% 0.00in /  0mm
21:39 14.4 °F /  -9.8 °C 10.2 °F /  -12.1 °C 30.47in /  1031.7hPa SW 7.0mph /  11.3km/h 17.0mph /  27.4km/h 83% 0.00in /  0mm
21:44 14.5 °F /  -9.7 °C 10.3 °F /  -12.1 °C 30.47in /  1031.7hPa WSW 6.0mph /  9.7km/h 15.0mph /  24.1km/h 83% 0.00in /  0mm
21:49 14.6 °F /  -9.7 °C 10.4 °F /  -12 °C 30.47in /  1031.7hPa WSW 8.0mph /  12.9km/h 17.0mph /  27.4km/h 83% 0.00in /  0mm
21:54 14.6 °F /  -9.7 °C 10.4 °F /  -12 °C 30.47in /  1031.7hPa WSW 7.0mph /  11.3km/h 20.0mph /  32.2km/h 83% 0.00in /  0mm
21:59 14.6 °F /  -9.7 °C 10.4 °F /  -12 °C 30.47in /  1031.7hPa SW 8.0mph /  12.9km/h 20.0mph /  32.2km/h 83% 0.00in /  0mm
22:04 14.6 °F /  -9.7 °C 10.1 °F /  -12.2 °C 30.47in /  1031.7hPa SW 8.0mph /  12.9km/h 18.0mph /  29km/h 82% 0.00in /  0mm
22:09 14.5 °F /  -9.7 °C 10.0 °F /  -12.2 °C 30.47in /  1031.7hPa WSW 5.0mph /  8km/h 17.0mph /  27.4km/h 82% 0.00in /  0mm
22:14 14.4 °F /  -9.8 °C 9.9 °F /  -12.3 °C 30.47in /  1031.7hPa SW 6.0mph /  9.7km/h 15.0mph /  24.1km/h 82% 0.00in /  0mm
22:19 14.5 °F /  -9.7 °C 10.0 °F /  -12.2 °C 30.48in /  1032.1hPa South 4.0mph /  6.4km/h 17.0mph /  27.4km/h 82% 0.00in /  0mm
22:24 14.5 °F /  -9.7 °C 10.0 °F /  -12.2 °C 30.48in /  1032.1hPa SW 8.0mph /  12.9km/h 17.0mph /  27.4km/h 82% 0.00in /  0mm
22:29 14.5 °F /  -9.7 °C 10.0 °F /  -12.2 °C 30.48in /  1032.1hPa SW 6.0mph /  9.7km/h 12.0mph /  19.3km/h 82% 0.00in /  0mm
22:34 14.6 °F /  -9.7 °C 10.1 °F /  -12.2 °C 30.48in /  1032.1hPa SW 6.0mph /  9.7km/h 12.0mph /  19.3km/h 82% 0.00in /  0mm
22:39 14.6 °F /  -9.7 °C 10.1 °F /  -12.2 °C 30.48in /  1032.1hPa SW 6.0mph /  9.7km/h 12.0mph /  19.3km/h 82% 0.00in /  0mm
22:44 14.8 °F /  -9.6 °C 10.3 °F /  -12.1 °C 30.48in /  1032.1hPa SW 6.0mph /  9.7km/h 13.0mph /  20.9km/h 82% 0.00in /  0mm
22:49 14.8 °F /  -9.6 °C 10.3 °F /  -12.1 °C 30.48in /  1032.1hPa SW 4.0mph /  6.4km/h 13.0mph /  20.9km/h 82% 0.00in /  0mm
22:54 15.0 °F /  -9.4 °C 10.5 °F /  -11.9 °C 30.48in /  1032.1hPa WSW 7.0mph /  11.3km/h 13.0mph /  20.9km/h 82% 0.00in /  0mm
22:59 15.1 °F /  -9.4 °C 10.6 °F /  -11.9 °C 30.48in /  1032.1hPa West 4.0mph /  6.4km/h 12.0mph /  19.3km/h 82% 0.00in /  0mm
23:04 15.2 °F /  -9.3 °C 11.0 °F /  -11.7 °C 30.48in /  1032.1hPa SW 8.0mph /  12.9km/h 15.0mph /  24.1km/h 83% 0.00in /  0mm
23:09 15.2 °F /  -9.3 °C 11.0 °F /  -11.7 °C 30.48in /  1032.1hPa WSW 5.0mph /  8km/h 12.0mph /  19.3km/h 83% 0.00in /  0mm
23:14 15.3 °F /  -9.3 °C 11.1 °F /  -11.6 °C 30.48in /  1032.1hPa SW 3.0mph /  4.8km/h 12.0mph /  19.3km/h 83% 0.00in /  0mm
23:19 15.3 °F /  -9.3 °C 11.1 °F /  -11.6 °C 30.48in /  1032.1hPa WNW 5.0mph /  8km/h 9.0mph /  14.5km/h 83% 0.00in /  0mm
23:24 15.4 °F /  -9.2 °C 11.2 °F /  -11.6 °C 30.48in /  1032.1hPa SW 7.0mph /  11.3km/h 10.0mph /  16.1km/h 83% 0.00in /  0mm
23:29 15.5 °F /  -9.2 °C 11.3 °F /  -11.5 °C 30.48in /  1032.1hPa SW 6.0mph /  9.7km/h 13.0mph /  20.9km/h 83% 0.00in /  0mm
23:34 15.5 °F /  -9.2 °C 11.3 °F /  -11.5 °C 30.47in /  1031.7hPa WSW 7.0mph /  11.3km/h 13.0mph /  20.9km/h 83% 0.00in /  0mm
23:39 15.5 °F /  -9.2 °C 11.3 °F /  -11.5 °C 30.47in /  1031.7hPa WSW 7.0mph /  11.3km/h 13.0mph /  20.9km/h 83% 0.00in /  0mm
23:44 15.5 °F /  -9.2 °C 11.3 °F /  -11.5 °C 30.47in /  1031.7hPa SW 7.0mph /  11.3km/h 13.0mph /  20.9km/h 83% 0.00in /  0mm
23:49 15.5 °F /  -9.2 °C 11.3 °F /  -11.5 °C 30.47in /  1031.7hPa SW 7.0mph /  11.3km/h 10.0mph /  16.1km/h 83% 0.00in /  0mm
23:54 15.5 °F /  -9.2 °C 11.3 °F /  -11.5 °C 30.47in /  1031.7hPa WSW 4.0mph /  6.4km/h 10.0mph /  16.1km/h 83% 0.00in /  0mm
23:59 15.6 °F /  -9.1 °C 11.4 °F /  -11.4 °C 30.47in /  1031.7hPa SW 5.0mph /  8km/h 10.0mph /  16.1km/h 83% 0.00in /  0mm
Buffalo, New York, USA
Compliments of Weather Underground - 2.5 mb